Huvudsida
METAR-TAF:

METAR-TAF

Flygplatser :

Örebro flygplats

Örebro, Sverige

latitud: 59-14N, longitud: 015-03E, höjd: 57 m

Aktuellt väderrapport

Denna rapport gjordes för 28 minuter sedan, klockan 09:20 UTC
Vind 10 kt från väst/sydväst, varierande mellan syd/sydväst och väst
Temperatur 10°C
Fuktighet 57%
Tryck 1028 hPa
Sikt 10 km eller mer
Inga moln under 1 500 m eller inga cumulonimbus

METAR: ESOE 250920Z 24010KT 210V270 CAVOK 10/02 Q1028

Tid: 11:48 (09:48 UTC)

Väderprognos

Denna rapport gjordes för 1 timme och 18 minuter sedan, klockan 08:30 UTC
Prognos gäller från 25 kl. 09 UTC till 25 kl. 18 UTC
Vind 12 kt från väst
Sikt 10 km eller mer
Inga moln under 1 500 m eller inga cumulonimbus

TAF: ESOE 250830Z 2509/2518 26012KT CAVOK

Aktuella väderrapporter och prognoser från 4000 flygplatser (METAR- och TAF-rapporter).

De tillgängliga stationerna syns som gula och röda prickar på kartan.

För musen över prickarna för att se namnen på stationerna.

Klicka sedan för att få väderrapporter och prognoser.

För att ändra kartan: Klicka på de gröna knapparna med ett svart kors på för att zooma in; den gröna knappen med ett streck på för att zooma ut; eller på de gröna pilarna för angränsande kartor.


METAR-TAF: